Time;durP1;ratioP1;P1;durP2;ratioP2;P2;SDS_P1;SDS_P2;PMS_P1;PMS_P2;Temp;Humidity;BMP_temperature;BMP_pressure;BME280_temperature;BME280_humidity;BME280_pressure;Samples;Min_cycle;Max_cycle;Signal;HPM_P1;HPM_P2
2024/01/24 00:02:05;;;;;;;0.70;0.70;;;11.70;99.90;;;;;;5051758;28;20434;-80
2024/01/24 00:04:34;;;;;;;1.33;1.23;;;11.70;99.90;;;;;;5052361;28;20554;-79
2024/01/24 00:07:00;;;;;;;2.80;1.53;;;11.70;99.90;;;;;;5051595;28;20433;-78
2024/01/24 00:09:27;;;;;;;0.70;0.63;;;11.80;99.90;;;;;;5051637;28;20921;-78
2024/01/24 00:11:54;;;;;;;6.60;2.10;;;11.80;99.90;;;;;;5051554;28;20515;-79
2024/01/24 00:14:22;;;;;;;3.33;1.50;;;11.70;99.90;;;;;;5051585;28;20444;-79
2024/01/24 00:16:48;;;;;;;3.37;0.97;;;11.70;99.90;;;;;;5051678;28;20477;-81
2024/01/24 00:19:15;;;;;;;2.70;1.50;;;11.70;99.90;;;;;;5051070;28;20837;-78
2024/01/24 00:21:43;;;;;;;2.53;1.00;;;11.70;99.90;;;;;;5051014;28;20449;-79
2024/01/24 00:24:11;;;;;;;1.53;1.43;;;11.80;99.90;;;;;;5051168;28;20438;-78
2024/01/24 00:26:38;;;;;;;2.53;1.53;;;11.80;99.90;;;;;;5051584;28;20433;-77
2024/01/24 00:29:05;;;;;;;1.90;0.80;;;11.80;99.90;;;;;;5051315;28;20832;-79
2024/01/24 00:31:32;;;;;;;1.30;1.20;;;11.80;99.90;;;;;;5051519;28;20433;-79
2024/01/24 00:33:59;;;;;;;1.20;1.10;;;11.90;99.90;;;;;;5051644;28;20433;-78
2024/01/24 00:36:25;;;;;;;7.93;1.47;;;11.90;99.90;;;;;;5051485;28;20495;-78
2024/01/24 00:38:53;;;;;;;2.93;1.43;;;12.00;99.90;;;;;;5051468;28;20481;-79
2024/01/24 00:41:20;;;;;;;1.10;1.00;;;11.90;99.90;;;;;;5051002;28;20512;-78
2024/01/24 00:43:47;;;;;;;8.07;2.10;;;12.00;99.90;;;;;;5051768;28;20445;-79
2024/01/24 00:46:14;;;;;;;1.77;1.63;;;12.00;99.90;;;;;;5051727;28;20445;-78
2024/01/24 00:48:40;;;;;;;11.53;2.63;;;12.10;99.90;;;;;;5051507;28;20475;-78
2024/01/24 00:51:07;;;;;;;2.50;1.10;;;12.10;99.90;;;;;;5051145;28;20944;-78
2024/01/24 00:53:37;;;;;;;9.33;2.40;;;12.10;99.90;;;;;;5051555;28;20445;-78
2024/01/24 00:56:07;;;;;;;13.33;2.20;;;12.10;99.90;;;;;;5055510;28;20477;-78
2024/01/24 00:58:33;;;;;;;1.17;1.07;;;12.10;99.90;;;;;;5055437;28;20833;-78
2024/01/24 01:01:00;;;;;;;13.80;1.80;;;12.10;99.90;;;;;;5055153;28;20434;-79
2024/01/24 01:03:27;;;;;;;2.20;1.33;;;12.10;99.90;;;;;;5055462;28;20461;-77
2024/01/24 01:05:54;;;;;;;1.20;1.10;;;12.20;99.90;;;;;;5055777;28;20433;-78
2024/01/24 01:08:20;;;;;;;2.40;1.80;;;12.20;99.90;;;;;;5054870;28;20456;-78
2024/01/24 01:10:47;;;;;;;1.43;1.30;;;12.20;99.90;;;;;;5055265;28;20446;-77
2024/01/24 01:13:15;;;;;;;1.53;1.43;;;12.20;99.90;;;;;;5055041;28;20437;-78
2024/01/24 01:15:42;;;;;;;1.70;0.77;;;12.30;99.90;;;;;;5055086;28;20448;-78
2024/01/24 01:18:10;;;;;;;1.33;1.23;;;12.30;99.90;;;;;;5054466;28;20482;-77
2024/01/24 01:20:37;;;;;;;1.00;0.90;;;12.30;99.90;;;;;;5055359;28;20441;-76
2024/01/24 01:23:04;;;;;;;1.20;0.80;;;12.40;99.90;;;;;;5054947;28;20438;-79
2024/01/24 01:25:31;;;;;;;2.50;1.60;;;12.40;99.90;;;;;;5055238;28;20520;-78
2024/01/24 01:27:58;;;;;;;2.10;1.27;;;12.40;99.90;;;;;;5055137;28;20469;-79
2024/01/24 01:30:26;;;;;;;0.70;0.50;;;12.40;99.90;;;;;;5054736;28;20438;-79
2024/01/24 01:32:53;;;;;;;2.60;2.40;;;12.50;99.90;;;;;;5055453;28;20438;-77
2024/01/24 01:35:20;;;;;;;2.70;1.20;;;12.50;99.90;;;;;;5054858;28;20460;-78
2024/01/24 01:37:46;;;;;;;0.73;0.73;;;12.50;99.90;;;;;;5054896;28;20477;-78
2024/01/24 01:40:13;;;;;;;0.60;0.40;;;12.60;99.90;;;;;;5054941;28;20445;-78
2024/01/24 01:42:44;;;;;;;0.60;0.40;;;12.60;99.90;;;;;;5055178;28;20449;-78
2024/01/24 01:45:11;;;;;;;0.70;0.70;;;12.70;99.90;;;;;;5055087;28;20461;-78
2024/01/24 01:47:40;;;;;;;0.90;0.70;;;12.70;99.90;;;;;;5054702;28;20980;-78
2024/01/24 01:50:10;;;;;;;0.93;0.70;;;12.70;99.90;;;;;;5054775;28;20444;-78
2024/01/24 01:52:37;;;;;;;1.50;1.33;;;12.70;99.90;;;;;;5054949;28;20450;-78
2024/01/24 01:55:06;;;;;;;0.60;0.60;;;12.70;99.90;;;;;;5054793;28;20821;-77
2024/01/24 01:57:33;;;;;;;0.80;0.80;;;12.70;99.90;;;;;;5054405;28;20485;-78
2024/01/24 02:00:00;;;;;;;0.93;0.83;;;12.70;99.90;;;;;;5055037;28;20444;-77
2024/01/24 02:02:27;;;;;;;1.17;1.17;;;12.70;99.90;;;;;;5054447;28;20441;-78
2024/01/24 02:04:55;;;;;;;1.70;1.00;;;12.70;99.90;;;;;;5054542;28;20444;-79
2024/01/24 02:07:22;;;;;;;0.80;0.77;;;12.70;99.90;;;;;;5054106;28;20457;-79
2024/01/24 02:09:49;;;;;;;2.00;1.00;;;12.70;99.90;;;;;;5054423;28;20445;-78
2024/01/24 02:12:15;;;;;;;1.97;1.47;;;12.70;99.90;;;;;;5053719;28;20978;-79
2024/01/24 02:14:42;;;;;;;1.47;1.37;;;12.70;99.90;;;;;;5054506;28;20434;-78
2024/01/24 02:17:09;;;;;;;0.57;0.53;;;12.80;99.90;;;;;;5053848;28;21016;-78
2024/01/24 02:19:36;;;;;;;0.60;0.60;;;12.80;99.90;;;;;;5054273;28;20449;-78
2024/01/24 02:22:04;;;;;;;0.50;0.40;;;12.90;99.90;;;;;;5054172;28;20444;-78
2024/01/24 02:24:32;;;;;;;1.10;0.60;;;13.00;99.90;;;;;;5059166;22;20488;-79
2024/01/24 02:26:59;;;;;;;0.50;0.47;;;13.00;99.90;;;;;;5045516;28;20452;-79
2024/01/24 02:29:26;;;;;;;0.80;0.80;;;13.00;99.90;;;;;;5054301;28;20441;-78
2024/01/24 02:31:52;;;;;;;0.70;0.70;;;13.10;99.90;;;;;;5047056;28;20437;-78
2024/01/24 02:34:19;;;;;;;0.60;0.50;;;13.20;99.90;;;;;;5049477;28;21053;-78
2024/01/24 02:36:46;;;;;;;1.30;1.10;;;13.20;99.90;;;;;;5039889;28;20440;-78
2024/01/24 02:39:13;;;;;;;1.00;0.90;;;13.30;99.90;;;;;;5055184;28;20449;-80
2024/01/24 02:41:42;;;;;;;2.40;1.33;;;13.20;99.90;;;;;;5039472;28;20448;-80
2024/01/24 02:44:09;;;;;;;0.80;0.70;;;13.20;99.90;;;;;;5056621;28;20560;-79
2024/01/24 02:46:36;;;;;;;0.50;0.50;;;13.10;99.90;;;;;;5056353;28;20446;-80
2024/01/24 02:49:04;;;;;;;0.90;0.60;;;13.00;99.90;;;;;;5039907;28;20435;-79
2024/01/24 02:51:30;;;;;;;0.83;0.57;;;13.00;99.90;;;;;;5046886;28;20782;-80
2024/01/24 02:53:57;;;;;;;1.43;0.67;;;12.90;99.90;;;;;;5055266;28;20466;-80
2024/01/24 02:56:24;;;;;;;0.50;0.40;;;12.90;99.90;;;;;;5054739;28;20440;-80
2024/01/24 02:58:52;;;;;;;1.00;1.00;;;13.00;99.90;;;;;;5046674;28;20480;-79
2024/01/24 03:01:19;;;;;;;1.10;0.93;;;13.00;99.90;;;;;;5044927;28;20873;-80
2024/01/24 03:03:46;;;;;;;5.80;0.90;;;13.00;99.90;;;;;;5048070;28;20461;-80
2024/01/24 03:06:13;;;;;;;0.80;0.70;;;13.00;99.90;;;;;;5046880;28;20468;-79
2024/01/24 03:08:54;;;;;;;2.83;0.87;;;13.10;99.90;;;;;;5047089;28;20445;-80
2024/01/24 03:11:21;;;;;;;0.60;0.60;;;13.10;99.90;;;;;;5054671;28;20873;-80
2024/01/24 03:13:48;;;;;;;1.20;0.77;;;13.10;99.90;;;;;;5055371;28;20489;-80
2024/01/24 03:16:17;;;;;;;0.50;0.40;;;13.00;99.90;;;;;;5046878;28;20439;-80
2024/01/24 03:18:44;;;;;;;0.60;0.60;;;13.00;99.90;;;;;;5055542;28;20485;-80
2024/01/24 03:21:16;;;;;;;0.70;0.70;;;13.00;99.90;;;;;;5055464;28;20487;-80
2024/01/24 03:23:42;;;;;;;0.70;0.70;;;13.00;99.90;;;;;;5054780;28;20457;-79
2024/01/24 03:26:09;;;;;;;1.10;0.80;;;13.00;99.90;;;;;;5054385;28;20437;-80
2024/01/24 03:28:36;;;;;;;1.07;1.07;;;13.00;99.90;;;;;;5051298;28;20431;-80
2024/01/24 03:31:04;;;;;;;0.50;0.40;;;12.90;99.90;;;;;;5049599;28;20434;-80
2024/01/24 03:33:32;;;;;;;2.20;1.33;;;12.90;99.90;;;;;;5054576;28;20464;-80
2024/01/24 03:35:59;;;;;;;0.83;0.43;;;12.90;99.90;;;;;;5054214;28;20445;-79
2024/01/24 03:38:25;;;;;;;1.07;0.97;;;12.80;99.90;;;;;;5054224;28;20477;-80
2024/01/24 03:40:52;;;;;;;0.60;0.47;;;12.70;99.90;;;;;;5040755;28;20453;-80
2024/01/24 03:43:19;;;;;;;0.73;0.73;;;12.70;99.90;;;;;;5035209;28;20458;-80
2024/01/24 03:45:46;;;;;;;1.80;1.10;;;12.60;99.90;;;;;;5050150;28;20795;-80
2024/01/24 03:48:13;;;;;;;0.50;0.50;;;12.60;99.90;;;;;;5034566;28;20929;-80
2024/01/24 03:50:41;;;;;;;0.70;0.70;;;12.70;99.90;;;;;;5054219;28;20809;-80
2024/01/24 03:53:08;;;;;;;0.87;0.87;;;12.70;99.90;;;;;;5048558;28;20818;-80
2024/01/24 03:55:34;;;;;;;7.00;0.60;;;12.60;99.90;;;;;;5048254;28;20540;-81
2024/01/24 03:58:01;;;;;;;0.50;0.50;;;12.40;99.90;;;;;;5054282;28;20562;-80
2024/01/24 04:00:28;;;;;;;0.50;0.50;;;12.30;99.90;;;;;;5053777;28;20437;-80
2024/01/24 04:02:55;;;;;;;0.50;0.40;;;12.20;99.90;;;;;;5045487;28;21205;-79
2024/01/24 04:05:22;;;;;;;0.77;0.77;;;12.10;99.90;;;;;;5037294;28;20998;-80
2024/01/24 04:07:50;;;;;;;0.67;0.60;;;12.10;99.90;;;;;;5054161;28;20433;-80
2024/01/24 04:10:17;;;;;;;2.43;0.67;;;12.10;99.90;;;;;;5054340;28;20430;-80
2024/01/24 04:12:43;;;;;;;0.57;0.57;;;12.10;99.90;;;;;;5045727;28;20434;-81
2024/01/24 04:15:11;;;;;;;0.70;0.60;;;12.10;99.90;;;;;;5045973;28;20832;-80
2024/01/24 04:17:37;;;;;;;0.40;0.40;;;12.10;99.90;;;;;;5045638;28;20901;-78
2024/01/24 04:20:05;;;;;;;0.40;0.40;;;12.10;99.90;;;;;;5052765;28;20441;-79
2024/01/24 04:22:32;;;;;;;0.50;0.40;;;12.00;99.90;;;;;;5053204;28;21007;-79
2024/01/24 04:25:00;;;;;;;0.50;0.40;;;12.00;99.90;;;;;;5039631;28;20874;-79
2024/01/24 04:27:27;;;;;;;0.50;0.40;;;12.00;99.90;;;;;;5034610;28;20441;-79
2024/01/24 04:29:54;;;;;;;0.40;0.30;;;12.00;99.90;;;;;;5052556;28;20442;-78
2024/01/24 04:32:21;;;;;;;0.90;0.70;;;12.00;99.90;;;;;;5052375;28;20450;-79
2024/01/24 04:34:47;;;;;;;0.47;0.40;;;12.00;99.90;;;;;;5037283;28;20458;-80
2024/01/24 04:37:14;;;;;;;0.50;0.40;;;12.00;99.90;;;;;;5037343;28;20435;-78
2024/01/24 04:39:41;;;;;;;0.67;0.67;;;12.00;99.90;;;;;;5051988;28;20933;-79
2024/01/24 04:42:09;;;;;;;0.50;0.40;;;12.10;99.90;;;;;;5052986;28;20449;-79
2024/01/24 04:44:36;;;;;;;0.40;0.40;;;12.10;99.90;;;;;;5053387;28;20556;-78
2024/01/24 04:47:03;;;;;;;0.47;0.30;;;12.10;99.90;;;;;;5053822;28;20487;-78
2024/01/24 04:49:30;;;;;;;0.50;0.50;;;12.00;99.90;;;;;;5053079;28;20440;-79
2024/01/24 04:51:57;;;;;;;0.43;0.40;;;12.10;99.90;;;;;;5053576;28;20437;-78
2024/01/24 04:54:23;;;;;;;0.50;0.40;;;12.00;99.90;;;;;;5045108;28;20458;-78
2024/01/24 04:56:50;;;;;;;0.80;0.40;;;12.10;99.90;;;;;;5053070;28;20442;-77
2024/01/24 04:59:19;;;;;;;0.50;0.40;;;12.10;99.90;;;;;;5053188;28;20477;-77
2024/01/24 05:01:45;;;;;;;1.57;1.50;;;12.10;99.90;;;;;;5050678;28;20435;-78
2024/01/24 05:04:12;;;;;;;0.50;0.40;;;12.10;99.90;;;;;;5033794;28;20485;-77
2024/01/24 05:06:40;;;;;;;0.50;0.40;;;12.10;99.90;;;;;;5033641;28;20473;-77
2024/01/24 05:09:07;;;;;;;0.50;0.40;;;12.20;99.90;;;;;;5048346;28;20433;-77
2024/01/24 05:11:34;;;;;;;1.23;0.93;;;12.20;99.90;;;;;;5051941;28;20450;-78
2024/01/24 05:14:01;;;;;;;0.50;0.40;;;12.30;99.90;;;;;;5045867;28;20453;-76
2024/01/24 05:16:29;;;;;;;1.47;0.60;;;12.30;99.90;;;;;;5036303;28;20446;-79
2024/01/24 05:18:57;;;;;;;0.50;0.40;;;12.30;99.90;;;;;;5053455;28;20842;-79
2024/01/24 05:21:23;;;;;;;0.50;0.40;;;12.40;99.90;;;;;;5053514;28;20434;-80
2024/01/24 05:23:52;;;;;;;1.57;0.70;;;12.40;99.90;;;;;;5041106;28;20812;-79
2024/01/24 05:26:19;;;;;;;0.60;0.50;;;12.40;99.90;;;;;;5040761;28;20438;-80
2024/01/24 05:28:46;;;;;;;0.93;0.70;;;12.40;99.90;;;;;;5039959;28;20433;-80
2024/01/24 05:31:12;;;;;;;0.60;0.50;;;12.40;99.90;;;;;;5054990;28;20447;-80
2024/01/24 05:33:40;;;;;;;3.50;1.37;;;12.30;99.90;;;;;;5043039;28;20469;-79
2024/01/24 05:36:07;;;;;;;1.17;0.80;;;12.20;99.90;;;;;;5033957;28;20438;-80
2024/01/24 05:38:34;;;;;;;0.60;0.50;;;12.20;99.90;;;;;;5050519;28;20484;-80
2024/01/24 05:41:01;;;;;;;20.10;1.20;;;12.10;99.90;;;;;;5050223;28;20521;-79
2024/01/24 05:43:29;;;;;;;2.83;1.17;;;12.10;99.90;;;;;;5058592;28;20465;-79
2024/01/24 05:45:56;;;;;;;3.17;2.40;;;12.10;99.90;;;;;;5057700;28;20441;-79
2024/01/24 05:48:22;;;;;;;4.10;0.80;;;12.10;99.90;;;;;;5057849;28;20798;-80
2024/01/24 05:50:51;;;;;;;0.80;0.80;;;12.10;99.90;;;;;;5057335;28;20433;-79
2024/01/24 05:53:18;;;;;;;0.50;0.43;;;12.10;99.90;;;;;;5059401;28;20453;-79
2024/01/24 05:55:44;;;;;;;2.50;0.60;;;12.20;99.90;;;;;;5057981;28;20441;-78
2024/01/24 05:58:11;;;;;;;0.50;0.43;;;12.20;99.90;;;;;;5057185;28;20480;-79
2024/01/24 06:00:38;;;;;;;6.43;1.10;;;12.10;99.90;;;;;;5056791;28;20453;-80
2024/01/24 06:03:05;;;;;;;0.50;0.40;;;12.20;99.90;;;;;;5048332;28;20452;-80
2024/01/24 06:05:32;;;;;;;2.20;0.40;;;12.10;99.90;;;;;;5056276;28;20971;-80
2024/01/24 06:08:02;;;;;;;0.90;0.90;;;12.10;99.90;;;;;;5056628;28;20456;-79
2024/01/24 06:10:29;;;;;;;1.33;1.00;;;12.20;99.90;;;;;;5057095;28;20441;-79
2024/01/24 06:12:55;;;;;;;1.33;0.53;;;12.10;99.90;;;;;;5057974;28;20449;-81
2024/01/24 06:15:22;;;;;;;0.50;0.40;;;12.10;99.90;;;;;;5049736;28;20783;-80
2024/01/24 06:17:49;;;;;;;0.50;0.40;;;12.10;99.90;;;;;;5038920;28;20452;-80
2024/01/24 06:20:16;;;;;;;2.20;0.40;;;12.10;99.90;;;;;;5056861;28;20454;-80
2024/01/24 06:22:45;;;;;;;5.50;1.43;;;12.10;99.90;;;;;;5046650;28;20447;-80
2024/01/24 06:25:14;;;;;;;3.00;1.10;;;12.10;99.90;;;;;;5045247;28;20462;-80
2024/01/24 06:27:41;;;;;;;27.87;3.43;;;12.10;99.90;;;;;;5036546;28;20973;-79
2024/01/24 06:30:10;;;;;;;0.50;0.40;;;12.00;99.90;;;;;;5041765;28;20805;-78
2024/01/24 06:32:37;;;;;;;0.60;0.50;;;12.10;99.90;;;;;;5056558;28;20798;-79
2024/01/24 06:35:04;;;;;;;0.50;0.40;;;12.10;99.90;;;;;;5056504;28;20548;-79
2024/01/24 06:37:31;;;;;;;0.70;0.70;;;12.00;99.90;;;;;;5048095;28;20458;-78
2024/01/24 06:39:58;;;;;;;2.77;2.67;;;12.00;99.90;;;;;;5047700;28;20513;-81
2024/01/24 06:42:26;;;;;;;0.60;0.60;;;12.00;99.90;;;;;;5049288;28;20439;-80
2024/01/24 06:44:54;;;;;;;2.83;2.00;;;12.00;99.90;;;;;;5050294;28;20468;-78
2024/01/24 06:47:21;;;;;;;0.50;0.40;;;12.00;99.90;;;;;;5056744;28;20457;-80
2024/01/24 06:49:47;;;;;;;0.50;0.40;;;12.00;99.90;;;;;;5056959;28;20482;-80
2024/01/24 06:52:14;;;;;;;0.77;0.77;;;12.00;99.90;;;;;;5055800;28;20433;-81
2024/01/24 06:54:41;;;;;;;1.23;1.10;;;12.00;99.90;;;;;;5047231;28;20466;-80
2024/01/24 06:57:07;;;;;;;1.20;1.17;;;12.00;99.90;;;;;;5041901;28;20913;-80
2024/01/24 06:59:36;;;;;;;1.03;0.67;;;12.00;99.90;;;;;;5040535;28;20481;-79
2024/01/24 07:02:03;;;;;;;3.13;0.87;;;12.00;99.90;;;;;;5044910;28;20446;-81
2024/01/24 07:04:29;;;;;;;1.23;0.90;;;12.00;99.90;;;;;;5044310;28;20469;-80
2024/01/24 07:06:56;;;;;;;1.07;0.70;;;12.00;99.90;;;;;;5040419;28;20437;-79
2024/01/24 07:09:23;;;;;;;1.43;1.20;;;12.00;99.90;;;;;;5041994;28;20439;-81
2024/01/24 07:11:50;;;;;;;0.50;0.40;;;11.90;99.90;;;;;;5036362;28;20445;-81
2024/01/24 07:14:17;;;;;;;0.50;0.50;;;12.00;99.90;;;;;;5042165;28;20457;-81
2024/01/24 07:16:46;;;;;;;1.63;1.00;;;12.00;99.90;;;;;;5056209;28;20445;-80
2024/01/24 07:19:13;;;;;;;5.90;1.83;;;11.90;99.90;;;;;;5042800;28;20469;-79
2024/01/24 07:21:40;;;;;;;5.43;2.00;;;11.90;99.90;;;;;;5041637;28;20815;-80
2024/01/24 07:24:07;;;;;;;2.60;0.60;;;11.80;99.90;;;;;;5049128;28;20490;-80
2024/01/24 07:26:34;;;;;;;1.00;0.87;;;11.80;99.90;;;;;;5048513;28;20442;-80
2024/01/24 07:29:00;;;;;;;1.00;0.60;;;11.80;99.90;;;;;;5036978;28;20431;-79
2024/01/24 07:31:28;;;;;;;3.03;1.27;;;11.80;99.90;;;;;;5036569;28;20922;-80
2024/01/24 07:33:56;;;;;;;0.53;0.50;;;11.70;99.90;;;;;;5054986;28;20549;-80
2024/01/24 07:36:23;;;;;;;3.27;1.00;;;11.60;99.90;;;;;;5051821;28;20473;-80
2024/01/24 07:38:50;;;;;;;0.50;0.40;;;11.50;99.90;;;;;;5044826;28;20481;-80
2024/01/24 07:41:16;;;;;;;1.60;1.50;;;11.40;99.90;;;;;;5052355;28;20438;-80
2024/01/24 07:43:43;;;;;;;3.60;3.30;;;11.40;99.90;;;;;;5045518;28;20457;-80
2024/01/24 07:46:11;;;;;;;1.17;0.80;;;11.40;99.90;;;;;;5050820;28;20947;-80
2024/01/24 07:48:37;;;;;;;0.50;0.40;;;11.40;99.90;;;;;;5040082;28;20500;-78
2024/01/24 07:51:06;;;;;;;10.70;2.47;;;11.40;99.90;;;;;;5045101;28;20427;-80
2024/01/24 07:53:32;;;;;;;9.07;1.83;;;11.40;99.90;;;;;;5036719;28;20462;-81
2024/01/24 07:55:59;;;;;;;4.20;1.53;;;11.40;99.90;;;;;;5045187;28;20434;-80
2024/01/24 07:58:28;;;;;;;0.50;0.40;;;11.40;99.90;;;;;;5036479;28;20814;-81
2024/01/24 08:00:55;;;;;;;15.10;2.13;;;11.50;99.90;;;;;;5044429;28;20532;-79
2024/01/24 08:03:22;;;;;;;4.93;0.83;;;11.50;99.90;;;;;;5042259;28;20470;-79
2024/01/24 08:05:49;;;;;;;2.60;1.20;;;11.50;99.90;;;;;;5048538;28;21048;-79
2024/01/24 08:08:17;;;;;;;6.90;0.90;;;11.50;99.90;;;;;;5042880;28;20438;-78
2024/01/24 08:10:43;;;;;;;0.50;0.40;;;11.50;99.90;;;;;;5053991;28;20438;-80
2024/01/24 08:13:10;;;;;;;3.37;1.90;;;11.50;99.90;;;;;;5044140;28;20441;-79
2024/01/24 08:15:37;;;;;;;2.73;0.90;;;11.50;99.90;;;;;;5044372;28;20442;-79
2024/01/24 08:18:04;;;;;;;2.47;1.00;;;11.50;99.90;;;;;;5039867;28;20442;-79
2024/01/24 08:20:31;;;;;;;0.50;0.40;;;11.50;99.90;;;;;;5041536;28;20485;-79
2024/01/24 08:22:57;;;;;;;0.97;0.57;;;11.50;99.90;;;;;;5044439;28;20435;-77
2024/01/24 08:25:26;;;;;;;3.03;1.23;;;11.40;99.90;;;;;;5066509;22;20773;-78
2024/01/24 08:27:53;;;;;;;0.50;0.40;;;11.40;99.90;;;;;;5050937;28;20437;-78
2024/01/24 08:30:20;;;;;;;2.80;1.07;;;11.40;99.90;;;;;;5047837;28;20441;-79
2024/01/24 08:32:47;;;;;;;1.37;0.83;;;11.40;99.90;;;;;;5038264;28;20438;-80
2024/01/24 08:35:15;;;;;;;2.40;1.00;;;11.40;99.90;;;;;;5037929;28;20446;-81
2024/01/24 08:37:42;;;;;;;2.93;1.10;;;11.40;99.90;;;;;;5053759;28;20481;-79
2024/01/24 08:40:10;;;;;;;6.00;1.60;;;11.50;99.90;;;;;;5055630;28;20469;-79
2024/01/24 08:42:41;;;;;;;8.33;1.83;;;11.70;99.90;;;;;;5056922;28;20455;-79
2024/01/24 08:45:09;;;;;;;3.20;0.67;;;11.80;99.90;;;;;;5056528;28;21002;-78
2024/01/24 08:47:36;;;;;;;12.03;2.00;;;12.00;99.90;;;;;;5056675;28;20499;-80
2024/01/24 08:50:04;;;;;;;1.43;0.77;;;12.00;99.90;;;;;;5057689;28;21143;-80
2024/01/24 08:52:30;;;;;;;0.80;0.80;;;11.90;99.90;;;;;;5057228;28;20532;-80
2024/01/24 08:54:57;;;;;;;1.27;1.17;;;11.90;99.90;;;;;;5057598;28;20445;-80
2024/01/24 08:57:24;;;;;;;0.50;0.40;;;11.80;99.90;;;;;;5058483;28;20453;-80
2024/01/24 08:59:53;;;;;;;0.50;0.50;;;11.80;99.90;;;;;;5057677;28;20527;-79
2024/01/24 09:02:19;;;;;;;1.90;1.47;;;11.70;99.90;;;;;;5056669;28;20441;-80
2024/01/24 09:04:48;;;;;;;7.47;3.27;;;11.60;99.90;;;;;;5056643;28;20441;-80
2024/01/24 09:07:15;;;;;;;0.70;0.60;;;11.60;99.90;;;;;;5057525;28;20464;-80
2024/01/24 09:09:42;;;;;;;2.07;1.10;;;11.50;99.90;;;;;;5057386;28;20444;-81
2024/01/24 09:12:09;;;;;;;1.30;0.93;;;11.60;99.90;;;;;;5058015;28;20444;-79
2024/01/24 09:14:36;;;;;;;1.17;0.93;;;11.50;99.90;;;;;;5057600;28;20450;-79
2024/01/24 09:17:07;;;;;;;2.10;1.27;;;11.50;99.90;;;;;;5061030;28;20461;-82
2024/01/24 09:19:34;;;;;;;2.73;0.80;;;11.50;99.90;;;;;;5061204;28;20976;-80
2024/01/24 09:22:01;;;;;;;9.50;2.30;;;11.50;99.90;;;;;;5061358;28;20441;-80
2024/01/24 09:24:28;;;;;;;1.93;0.93;;;11.40;99.90;;;;;;5061228;28;20436;-80
2024/01/24 09:26:56;;;;;;;1.50;1.30;;;11.40;99.90;;;;;;5056723;28;20469;-79
2024/01/24 09:29:22;;;;;;;0.50;0.40;;;11.40;99.90;;;;;;5055526;28;20790;-79
2024/01/24 09:31:49;;;;;;;5.20;1.47;;;11.40;99.90;;;;;;5046825;28;20934;-79
2024/01/24 09:34:17;;;;;;;7.93;0.80;;;11.40;99.90;;;;;;5057434;28;20445;-79
2024/01/24 09:36:44;;;;;;;1.90;1.07;;;11.30;99.90;;;;;;5056892;28;20456;-79
2024/01/24 09:39:11;;;;;;;1.87;1.50;;;11.40;99.90;;;;;;5056508;28;20531;-76
2024/01/24 09:41:41;;;;;;;3.17;1.37;;;11.40;99.90;;;;;;5056984;28;20559;-79
2024/01/24 09:44:09;;;;;;;17.30;4.60;;;11.50;99.90;;;;;;5056340;28;20442;-79
2024/01/24 09:46:37;;;;;;;3.83;0.60;;;11.70;99.90;;;;;;5056264;28;20462;-79
2024/01/24 09:49:05;;;;;;;1.53;1.33;;;11.70;99.90;;;;;;5055830;28;20441;-79
2024/01/24 09:51:34;;;;;;;6.63;3.30;;;11.70;99.90;;;;;;5055660;28;20838;-79
2024/01/24 09:54:05;;;;;;;0.50;0.40;;;11.70;99.90;;;;;;5055596;28;20433;-79
2024/01/24 09:56:34;;;;;;;3.20;1.63;;;11.70;99.90;;;;;;5055288;28;20465;-79
2024/01/24 09:59:02;;;;;;;4.73;1.73;;;11.70;99.90;;;;;;5054509;28;20441;-79
2024/01/24 10:01:31;;;;;;;1.57;1.13;;;11.60;99.90;;;;;;5069584;28;20430;-78
2024/01/24 10:03:59;;;;;;;8.97;2.37;;;11.50;99.90;;;;;;5063543;28;20804;-79
2024/01/24 10:06:26;;;;;;;3.07;1.43;;;11.40;99.90;;;;;;5054736;28;20485;-79
2024/01/24 10:08:54;;;;;;;1.37;0.40;;;11.30;99.90;;;;;;5054328;28;20442;-79
2024/01/24 10:11:21;;;;;;;0.50;0.40;;;11.30;99.90;;;;;;5060628;28;20789;-79
2024/01/24 10:13:48;;;;;;;2.70;0.60;;;11.30;99.90;;;;;;5065173;28;20437;-81
2024/01/24 10:16:15;;;;;;;0.90;0.90;;;11.30;99.90;;;;;;5059351;28;20461;-78
2024/01/24 10:18:44;;;;;;;0.60;0.50;;;11.30;99.90;;;;;;5058405;28;20446;-81
2024/01/24 10:21:13;;;;;;;0.50;0.40;;;11.30;99.90;;;;;;5056467;28;20480;-79
2024/01/24 10:23:41;;;;;;;1.60;1.27;;;11.30;99.90;;;;;;5058358;28;20471;-81
2024/01/24 10:26:10;;;;;;;3.87;2.23;;;11.40;99.90;;;;;;5061805;28;20492;-78
2024/01/24 10:28:37;;;;;;;4.20;1.63;;;11.40;99.90;;;;;;5062565;28;20446;-79
2024/01/24 10:31:04;;;;;;;6.83;1.87;;;11.30;99.90;;;;;;5057435;28;20456;-78
2024/01/24 10:33:31;;;;;;;10.23;2.77;;;11.30;99.90;;;;;;5064583;28;20493;-81
2024/01/24 10:35:59;;;;;;;10.70;3.57;;;11.40;99.90;;;;;;5065448;28;20453;-79
2024/01/24 10:38:31;;;;;;;0.80;0.80;;;11.40;99.90;;;;;;5065825;28;20430;-81
2024/01/24 10:41:00;;;;;;;0.50;0.40;;;11.40;99.90;;;;;;5065620;28;20531;-80
2024/01/24 10:43:29;;;;;;;16.97;1.73;;;11.40;99.90;;;;;;5065822;28;20469;-81
2024/01/24 10:45:58;;;;;;;3.80;3.60;;;11.40;99.90;;;;;;5065714;28;20467;-81
2024/01/24 10:48:25;;;;;;;3.47;1.07;;;11.50;99.90;;;;;;5065377;28;20453;-81
2024/01/24 10:50:53;;;;;;;5.80;0.93;;;11.40;99.90;;;;;;5066060;28;20801;-81
2024/01/24 10:53:20;;;;;;;3.70;1.90;;;11.50;99.90;;;;;;5055151;28;20445;-80
2024/01/24 10:55:51;;;;;;;16.20;1.03;;;11.50;99.90;;;;;;5065255;28;20461;-82
2024/01/24 10:58:18;;;;;;;0.77;0.77;;;11.60;99.90;;;;;;5064294;28;20433;-82
2024/01/24 11:00:46;;;;;;;0.87;0.63;;;11.60;99.90;;;;;;5064724;28;20499;-81
2024/01/24 11:03:13;;;;;;;9.93;1.50;;;11.60;99.90;;;;;;5064779;28;20444;-81
2024/01/24 11:05:43;;;;;;;0.60;0.50;;;11.70;99.90;;;;;;5064250;28;20873;-82
2024/01/24 11:08:17;;;;;;;0.90;0.90;;;11.70;99.90;;;;;;5064137;28;20456;-76
2024/01/24 11:10:45;;;;;;;0.73;0.73;;;11.80;99.90;;;;;;5064707;28;20448;-81
2024/01/24 11:13:12;;;;;;;0.70;0.70;;;11.80;99.90;;;;;;5063227;28;20537;-80
2024/01/24 11:15:40;;;;;;;6.23;2.83;;;11.70;99.90;;;;;;5059595;28;20468;-80
2024/01/24 11:18:22;;;;;;;3.37;1.07;;;11.70;99.90;;;;;;5058695;28;20449;-80
2024/01/24 11:20:51;;;;;;;3.63;3.47;;;11.60;99.90;;;;;;5059526;28;20477;-81
2024/01/24 11:23:35;;;;;;;5.93;2.10;;;11.60;99.90;;;;;;5058408;28;20438;-75
2024/01/24 11:26:02;;;;;;;2.30;1.13;;;11.50;99.90;;;;;;5059643;28;20461;-80
2024/01/24 11:28:29;;;;;;;0.50;0.50;;;11.40;99.90;;;;;;5059274;28;20441;-80
2024/01/24 11:30:56;;;;;;;0.97;0.97;;;11.40;99.90;;;;;;5059672;28;20442;-79
2024/01/24 11:33:24;;;;;;;1.93;1.73;;;11.50;99.90;;;;;;5051619;28;20438;-80
2024/01/24 11:35:53;;;;;;;3.00;2.10;;;11.50;99.90;;;;;;5059677;28;20476;-80
2024/01/24 11:38:34;;;;;;;0.70;0.63;;;11.50;99.90;;;;;;5059839;28;20445;-80
2024/01/24 11:41:03;;;;;;;5.67;2.23;;;11.50;99.90;;;;;;5060018;28;20469;-80
2024/01/24 11:43:31;;;;;;;0.77;0.77;;;11.50;99.90;;;;;;5060392;28;20437;-80
2024/01/24 11:46:00;;;;;;;2.47;1.40;;;11.50;99.90;;;;;;5059394;28;20465;-81
2024/01/24 11:48:29;;;;;;;8.83;3.07;;;11.50;99.90;;;;;;5051749;28;20441;-80
2024/01/24 11:50:57;;;;;;;8.40;2.00;;;11.50;99.90;;;;;;5059397;28;20444;-80
2024/01/24 11:53:23;;;;;;;9.83;2.10;;;11.50;99.90;;;;;;5059136;28;20438;-78
2024/01/24 11:55:55;;;;;;;1.03;0.63;;;11.50;99.90;;;;;;5059390;28;20469;-80
2024/01/24 11:58:25;;;;;;;6.40;1.43;;;11.50;99.90;;;;;;5059433;28;20984;-80
2024/01/24 12:00:52;;;;;;;0.63;0.63;;;11.60;99.90;;;;;;5059799;28;20477;-80
2024/01/24 12:03:19;;;;;;;0.90;0.80;;;11.60;99.90;;;;;;5058905;28;20439;-77
2024/01/24 12:05:48;;;;;;;2.00;1.47;;;11.60;99.90;;;;;;5059554;28;20462;-79
2024/01/24 12:08:15;;;;;;;4.10;0.70;;;11.60;99.90;;;;;;5057798;28;20442;-79
2024/01/24 12:10:42;;;;;;;1.27;0.70;;;11.60;99.90;;;;;;5054238;28;20440;-78
2024/01/24 12:13:09;;;;;;;0.70;0.70;;;11.70;99.90;;;;;;5052366;28;20443;-78
2024/01/24 12:15:37;;;;;;;0.87;0.80;;;11.60;99.90;;;;;;5053142;28;20908;-79
2024/01/24 12:18:06;;;;;;;1.37;1.27;;;11.60;99.90;;;;;;5053133;28;20449;-79
2024/01/24 12:20:33;;;;;;;12.07;2.03;;;11.50;99.90;;;;;;5053120;28;20485;-79
2024/01/24 12:23:02;;;;;;;2.27;0.90;;;11.60;99.90;;;;;;5052799;28;20446;-79
2024/01/24 12:25:29;;;;;;;2.10;1.00;;;11.50;99.90;;;;;;5044763;28;20556;-78
2024/01/24 12:27:58;;;;;;;1.83;0.93;;;11.50;99.90;;;;;;5052087;28;20516;-78
2024/01/24 12:30:26;;;;;;;1.73;0.60;;;11.50;99.90;;;;;;5052068;28;20444;-78
2024/01/24 12:32:55;;;;;;;4.73;2.70;;;11.60;99.90;;;;;;5051911;28;20528;-79
2024/01/24 12:35:23;;;;;;;1.80;0.70;;;11.70;99.90;;;;;;5051608;28;20433;-78
2024/01/24 12:37:50;;;;;;;0.50;0.40;;;11.70;99.90;;;;;;5055039;28;21181;-78
2024/01/24 12:40:18;;;;;;;1.23;0.87;;;11.70;99.90;;;;;;5052622;28;20480;-79
2024/01/24 12:42:45;;;;;;;9.10;1.77;;;11.70;99.90;;;;;;5052508;28;20448;-79
2024/01/24 12:45:13;;;;;;;19.10;1.00;;;11.80;99.90;;;;;;5051646;28;20495;-79
2024/01/24 12:47:40;;;;;;;0.77;0.70;;;11.90;99.90;;;;;;5051247;28;20495;-79